Time;durP1;ratioP1;P1;durP2;ratioP2;P2;SDS_P1;SDS_P2;PMS_P1;PMS_P2;Temp;Humidity;BMP_temperature;BMP_pressure;BME280_temperature;BME280_humidity;BME280_pressure;Samples;Min_cycle;Max_cycle;Signal;HPM_P1;HPM_P2
2022/01/21 00:00:22;;;;;;;;;;;17.90;42.80;;;;;;5102025;28;19923;-65
2022/01/21 00:02:47;;;;;;;;;;;17.90;42.90;;;;;;5072879;28;19947;-65
2022/01/21 00:05:13;;;;;;;;;;;17.90;42.90;;;;;;5118324;27;19913;-66
2022/01/21 00:07:38;;;;;;;;;;;17.90;42.70;;;;;;5094775;28;19977;-66
2022/01/21 00:10:04;;;;;;;;;;;17.90;42.70;;;;;;5079513;28;19938;-65
2022/01/21 00:12:31;;;;;;;;;;;17.90;42.80;;;;;;5064604;28;19919;-66
2022/01/21 00:14:56;;;;;;;;;;;17.90;43.30;;;;;;5095285;28;20335;-65
2022/01/21 00:17:23;;;;;;;;;;;17.90;42.80;;;;;;5094009;28;19947;-65
2022/01/21 00:19:52;;;;;;;;;;;17.90;42.90;;;;;;5094916;28;19927;-65
2022/01/21 00:30:31;;;;;;;;;;;17.80;42.80;;;;;;5104276;28;19919;-64
2022/01/21 00:32:56;;;;;;;;;;;17.90;42.90;;;;;;5093792;28;19916;-65
2022/01/21 00:35:22;;;;;;;;;;;17.90;42.70;;;;;;5093792;28;19915;-65
2022/01/21 00:37:48;;;;;;;;;;;17.90;42.70;;;;;;5094084;28;19951;-66
2022/01/21 00:40:15;;;;;;;;;;;17.90;42.70;;;;;;5095693;28;19912;-65
2022/01/21 00:45:11;;;;;;;;;;;17.90;42.70;;;;;;5094520;28;19923;-65
2022/01/21 00:47:36;;;;;;;;;;;17.90;42.70;;;;;;5099697;28;19992;-66
2022/01/21 00:50:02;;;;;;;;;;;17.90;42.70;;;;;;5093595;28;19963;-66
2022/01/21 00:52:27;;;;;;;;;;;17.90;42.70;;;;;;5093358;28;19923;-64
2022/01/21 00:54:53;;;;;;;;;;;17.90;42.70;;;;;;5094762;28;19912;-65
2022/01/21 00:57:18;;;;;;;;;;;17.90;42.70;;;;;;5127072;27;20022;-66
2022/01/21 00:59:44;;;;;;;;;;;17.90;42.90;;;;;;5092266;28;19939;-65
2022/01/21 01:02:09;;;;;;;;;;;17.90;42.70;;;;;;5108195;28;20031;-66
2022/01/21 01:04:35;;;;;;;;;;;17.90;42.70;;;;;;5093660;28;19916;-66
2022/01/21 01:07:00;;;;;;;;;;;17.90;42.70;;;;;;5093688;28;19908;-65
2022/01/21 01:09:25;;;;;;;;;;;17.90;42.70;;;;;;5092452;28;19916;-66
2022/01/21 01:19:58;;;;;;;;;;;17.90;42.70;;;;;;5093919;28;19962;-65
2022/01/21 01:22:44;;;;;;;;;;;17.90;42.70;;;;;;5093984;28;19948;-65
2022/01/21 01:27:54;;;;;;;;;;;17.90;42.70;;;;;;5092172;28;19919;-66
2022/01/21 01:30:26;;;;;;;;;;;17.90;42.70;;;;;;5093967;28;20375;-65
2022/01/21 01:32:53;;;;;;;;;;;17.80;42.60;;;;;;5100169;28;20057;-65
2022/01/21 01:35:19;;;;;;;;;;;17.90;42.90;;;;;;5093006;28;19962;-65
2022/01/21 01:38:13;;;;;;;;;;;17.90;42.70;;;;;;5092479;28;19924;-65
2022/01/21 01:40:51;;;;;;;;;;;17.90;42.70;;;;;;5094494;28;19916;-66
2022/01/21 01:50:55;;;;;;;;;;;17.90;42.70;;;;;;5093588;28;20483;-66
2022/01/21 01:53:29;;;;;;;;;;;17.90;42.70;;;;;;5094081;28;19998;-66
2022/01/21 01:55:54;;;;;;;;;;;17.90;42.70;;;;;;5092264;28;19946;-65
2022/01/21 01:58:20;;;;;;;;;;;17.90;42.70;;;;;;5092124;28;20291;-65
2022/01/21 02:00:45;;;;;;;;;;;17.90;42.70;;;;;;5092449;28;19962;-65
2022/01/21 02:03:11;;;;;;;;;;;17.90;42.70;;;;;;5091959;28;19912;-65
2022/01/21 02:05:37;;;;;;;;;;;17.90;42.70;;;;;;5092078;28;19912;-65
2022/01/21 02:08:02;;;;;;;;;;;17.80;42.60;;;;;;5092040;28;20360;-65
2022/01/21 02:10:28;;;;;;;;;;;17.90;42.70;;;;;;5070455;28;19939;-65
2022/01/21 02:13:02;;;;;;;;;;;17.80;42.60;;;;;;5073404;28;19954;-65
2022/01/21 02:15:28;;;;;;;;;;;17.80;42.60;;;;;;5109004;27;19919;-65
2022/01/21 02:23:22;;;;;;;;;;;17.80;42.60;;;;;;5093397;28;19915;-65
2022/01/21 02:25:47;;;;;;;;;;;17.70;42.60;;;;;;5061813;28;19912;-65
2022/01/21 02:28:15;;;;;;;;;;;17.70;42.60;;;;;;5088220;28;20015;-65
2022/01/21 02:30:51;;;;;;;;;;;17.70;42.50;;;;;;5094831;28;20315;-65
2022/01/21 02:33:16;;;;;;;;;;;17.80;42.60;;;;;;5104302;28;20437;-66
2022/01/21 02:35:42;;;;;;;;;;;17.80;42.60;;;;;;5091771;28;19912;-64
2022/01/21 02:38:07;;;;;;;;;;;17.80;42.60;;;;;;5091377;28;19912;-65
2022/01/21 02:40:33;;;;;;;;;;;17.80;42.60;;;;;;5096977;28;20006;-65
2022/01/21 02:42:58;;;;;;;;;;;17.80;42.60;;;;;;5095374;28;19912;-65
2022/01/21 02:45:23;;;;;;;;;;;17.80;42.60;;;;;;5092779;28;20015;-65
2022/01/21 02:47:49;;;;;;;;;;;17.80;42.60;;;;;;5091760;28;19912;-65
2022/01/21 02:50:16;;;;;;;;;;;17.80;42.60;;;;;;5092204;28;19929;-65
2022/01/21 02:52:54;;;;;;;;;;;17.80;42.60;;;;;;5090798;28;19916;-65
2022/01/21 02:55:19;;;;;;;;;;;17.80;42.60;;;;;;5094985;28;19916;-65
2022/01/21 02:57:45;;;;;;;;;;;17.80;42.60;;;;;;5090240;28;20333;-65
2022/01/21 03:00:10;;;;;;;;;;;17.80;42.60;;;;;;5091033;28;19912;-65
2022/01/21 03:02:36;;;;;;;;;;;17.80;42.60;;;;;;5091154;28;19912;-65
2022/01/21 03:05:11;;;;;;;;;;;17.80;42.60;;;;;;5091997;28;20309;-65
2022/01/21 03:07:36;;;;;;;;;;;17.70;42.50;;;;;;5099434;28;20000;-65
2022/01/21 03:10:02;;;;;;;;;;;17.80;42.60;;;;;;5089857;28;20000;-65
2022/01/21 03:12:27;;;;;;;;;;;17.80;42.60;;;;;;5091247;28;20011;-66
2022/01/21 03:14:53;;;;;;;;;;;17.80;42.60;;;;;;5091854;28;19969;-65
2022/01/21 03:17:18;;;;;;;;;;;17.80;42.60;;;;;;5108137;28;20273;-65
2022/01/21 03:19:44;;;;;;;;;;;17.80;42.60;;;;;;5092489;28;20254;-65
2022/01/21 03:22:09;;;;;;;;;;;17.80;42.60;;;;;;5090362;28;19935;-66
2022/01/21 03:24:35;;;;;;;;;;;17.80;42.60;;;;;;5093187;28;19916;-65
2022/01/21 03:27:00;;;;;;;;;;;17.80;42.60;;;;;;5090659;28;19919;-65
2022/01/21 03:29:25;;;;;;;;;;;17.80;42.60;;;;;;5074791;28;19967;-65
2022/01/21 03:31:51;;;;;;;;;;;17.80;42.60;;;;;;5106475;28;19918;-65
2022/01/21 03:34:16;;;;;;;;;;;17.80;42.60;;;;;;5102431;28;19912;-65
2022/01/21 03:36:42;;;;;;;;;;;17.80;42.60;;;;;;5091261;28;19912;-65
2022/01/21 03:39:08;;;;;;;;;;;17.80;42.60;;;;;;5091787;28;19916;-65
2022/01/21 03:41:33;;;;;;;;;;;17.80;42.60;;;;;;5108466;28;19916;-65
2022/01/21 03:43:59;;;;;;;;;;;17.80;42.60;;;;;;5091945;28;20356;-65
2022/01/21 03:46:24;;;;;;;;;;;17.80;42.60;;;;;;5090519;28;19912;-65
2022/01/21 03:48:50;;;;;;;;;;;17.80;42.60;;;;;;5070068;28;19965;-63
2022/01/21 03:51:16;;;;;;;;;;;17.80;42.60;;;;;;5091282;28;19916;-63
2022/01/21 03:53:42;;;;;;;;;;;17.80;42.60;;;;;;5089771;28;20335;-62
2022/01/21 03:56:07;;;;;;;;;;;17.80;42.60;;;;;;5096262;28;19973;-62
2022/01/21 03:58:33;;;;;;;;;;;17.80;42.60;;;;;;5072926;28;20362;-62
2022/01/21 04:00:58;;;;;;;;;;;17.80;42.60;;;;;;5122909;28;19912;-63
2022/01/21 04:03:24;;;;;;;;;;;17.80;42.60;;;;;;5091431;28;19917;-63
2022/01/21 04:05:50;;;;;;;;;;;17.70;42.50;;;;;;5091418;28;19916;-63
2022/01/21 04:08:15;;;;;;;;;;;17.60;42.60;;;;;;5090272;28;20261;-63
2022/01/21 04:10:48;;;;;;;;;;;17.60;42.60;;;;;;5091462;28;20389;-63
2022/01/21 04:13:18;;;;;;;;;;;17.60;42.80;;;;;;5096875;28;19922;-63
2022/01/21 04:15:44;;;;;;;;;;;17.50;42.80;;;;;;5095160;28;20364;-63
2022/01/21 04:18:09;;;;;;;;;;;17.50;42.90;;;;;;5091750;28;19960;-63
2022/01/21 04:20:35;;;;;;;;;;;17.50;42.80;;;;;;5090543;28;20286;-62
2022/01/21 04:23:00;;;;;;;;;;;17.50;42.70;;;;;;5091858;28;19908;-62
2022/01/21 04:25:26;;;;;;;;;;;17.60;42.60;;;;;;5091359;28;19908;-62
2022/01/21 04:27:51;;;;;;;;;;;17.60;42.80;;;;;;5091795;28;19970;-62
2022/01/21 04:30:17;;;;;;;;;;;17.50;42.70;;;;;;5103007;28;19908;-63
2022/01/21 04:32:42;;;;;;;;;;;17.60;42.80;;;;;;5100076;28;19988;-63
2022/01/21 04:35:08;;;;;;;;;;;17.60;42.70;;;;;;5091351;28;20299;-63
2022/01/21 04:37:34;;;;;;;;;;;17.60;42.50;;;;;;5083265;28;20007;-63
2022/01/21 04:47:53;;;;;;;;;;;17.70;42.50;;;;;;5098197;28;19961;-63
2022/01/21 04:50:18;;;;;;;;;;;17.70;42.50;;;;;;5094492;28;19916;-63
2022/01/21 04:52:44;;;;;;;;;;;17.70;42.50;;;;;;5093948;28;19920;-63
2022/01/21 04:55:09;;;;;;;;;;;17.70;42.50;;;;;;5108676;28;19916;-63
2022/01/21 04:57:35;;;;;;;;;;;17.70;42.50;;;;;;5094812;28;20052;-62
2022/01/21 05:00:00;;;;;;;;;;;17.70;42.50;;;;;;5093179;28;19927;-62
2022/01/21 05:02:27;;;;;;;;;;;17.70;42.50;;;;;;5076768;28;19908;-62
2022/01/21 05:04:53;;;;;;;;;;;17.70;42.50;;;;;;5092987;28;19919;-62
2022/01/21 05:07:22;;;;;;;;;;;17.70;42.40;;;;;;5110554;28;20380;-62
2022/01/21 05:09:48;;;;;;;;;;;17.70;42.50;;;;;;5108695;28;20031;-62
2022/01/21 05:12:20;;;;;;;;;;;17.70;42.50;;;;;;5110649;28;20003;-63
2022/01/21 05:17:24;;;;;;;;;;;17.70;42.50;;;;;;5094238;28;20433;-63
2022/01/21 05:19:50;;;;;;;;;;;17.70;42.50;;;;;;5092486;28;19920;-63
2022/01/21 05:22:15;;;;;;;;;;;17.70;42.50;;;;;;5093193;28;19914;-63
2022/01/21 05:24:41;;;;;;;;;;;17.70;43.10;;;;;;5094786;28;19916;-63
2022/01/21 05:27:07;;;;;;;;;;;17.70;42.50;;;;;;5095063;28;19998;-63
2022/01/21 05:29:33;;;;;;;;;;;17.70;42.50;;;;;;5094232;28;19943;-63
2022/01/21 05:31:59;;;;;;;;;;;17.70;42.50;;;;;;5092128;28;19963;-63
2022/01/21 05:34:24;;;;;;;;;;;17.70;42.50;;;;;;5111867;28;19912;-63
2022/01/21 05:36:50;;;;;;;;;;;17.70;42.50;;;;;;5105474;28;19995;-62
2022/01/21 05:39:16;;;;;;;;;;;17.70;42.50;;;;;;5093694;28;19908;-62
2022/01/21 05:41:45;;;;;;;;;;;17.70;42.50;;;;;;5096264;28;20028;-63
2022/01/21 05:46:23;;;;;;;;;;;17.70;42.50;;;;;;5076463;28;19908;-63
2022/01/21 05:47:03;;;;;;;;;;;17.70;42.50;;;;;;5092348;28;20390;-64
2022/01/21 05:49:29;;;;;;;;;;;17.70;42.50;;;;;;5075684;28;20360;-63
2022/01/21 05:52:03;;;;;;;;;;;17.70;42.50;;;;;;5092611;28;19913;-63
2022/01/21 05:54:28;;;;;;;;;;;17.70;42.50;;;;;;5076648;28;19915;-63
2022/01/21 05:56:54;;;;;;;;;;;17.70;42.50;;;;;;5092560;28;19998;-63
2022/01/21 05:59:20;;;;;;;;;;;17.70;42.30;;;;;;5126391;27;20288;-63
2022/01/21 06:01:45;;;;;;;;;;;17.70;42.30;;;;;;5092390;28;19908;-63
2022/01/21 06:04:10;;;;;;;;;;;17.70;42.30;;;;;;5092592;28;20257;-63
2022/01/21 06:06:36;;;;;;;;;;;17.70;42.50;;;;;;5093015;28;19909;-62
2022/01/21 06:09:02;;;;;;;;;;;17.70;42.30;;;;;;5098814;28;19918;-62
2022/01/21 06:11:28;;;;;;;;;;;17.70;42.50;;;;;;5091137;28;19959;-62
2022/01/21 06:13:53;;;;;;;;;;;17.70;42.50;;;;;;5109062;28;20399;-63
2022/01/21 06:16:19;;;;;;;;;;;17.70;42.30;;;;;;5093181;28;19916;-62
2022/01/21 06:18:44;;;;;;;;;;;17.70;42.40;;;;;;5093181;28;19925;-62
2022/01/21 06:21:10;;;;;;;;;;;17.70;42.50;;;;;;5125210;27;19912;-64
2022/01/21 06:23:35;;;;;;;;;;;17.70;42.50;;;;;;5092881;28;19954;-63
2022/01/21 06:26:01;;;;;;;;;;;17.70;42.30;;;;;;5091463;28;19912;-63
2022/01/21 06:28:26;;;;;;;;;;;17.70;42.30;;;;;;5091955;28;19908;-62
2022/01/21 06:30:52;;;;;;;;;;;17.70;42.20;;;;;;5089852;28;19912;-63
2022/01/21 06:33:18;;;;;;;;;;;17.70;42.30;;;;;;5091942;28;19927;-63
2022/01/21 06:35:43;;;;;;;;;;;17.70;42.30;;;;;;5089174;28;21675;-64
2022/01/21 06:38:09;;;;;;;;;;;17.70;42.20;;;;;;5092189;28;20310;-63
2022/01/21 06:40:34;;;;;;;;;;;17.70;42.20;;;;;;5091934;28;19912;-63
2022/01/21 06:43:02;;;;;;;;;;;17.70;42.20;;;;;;5089463;28;20229;-63
2022/01/21 06:45:28;;;;;;;;;;;17.70;42.20;;;;;;5092347;28;19912;-63
2022/01/21 06:47:53;;;;;;;;;;;17.70;42.20;;;;;;5108594;28;20288;-63
2022/01/21 06:50:19;;;;;;;;;;;17.70;42.10;;;;;;5125083;27;20006;-63
2022/01/21 06:52:44;;;;;;;;;;;17.70;42.20;;;;;;5125553;27;19912;-63
2022/01/21 06:55:10;;;;;;;;;;;17.70;42.30;;;;;;5090432;28;19915;-63
2022/01/21 06:57:38;;;;;;;;;;;17.70;42.20;;;;;;5090926;28;19943;-64
2022/01/21 07:00:05;;;;;;;;;;;17.70;42.20;;;;;;5090385;28;19926;-63
2022/01/21 07:02:30;;;;;;;;;;;17.70;42.20;;;;;;5089079;28;19961;-62
2022/01/21 07:04:56;;;;;;;;;;;17.70;42.30;;;;;;5106924;28;19912;-62
2022/01/21 07:07:22;;;;;;;;;;;17.70;42.30;;;;;;5091815;28;20015;-62
2022/01/21 07:09:47;;;;;;;;;;;17.70;42.50;;;;;;5094476;28;19908;-62
2022/01/21 07:12:12;;;;;;;;;;;17.70;42.30;;;;;;5091171;28;19943;-62
2022/01/21 07:14:38;;;;;;;;;;;17.70;42.10;;;;;;5088172;28;20306;-62
2022/01/21 07:17:04;;;;;;;;;;;17.70;42.10;;;;;;5090495;28;19920;-62
2022/01/21 07:19:30;;;;;;;;;;;17.70;42.00;;;;;;5090519;28;19927;-62
2022/01/21 07:21:56;;;;;;;;;;;17.70;42.00;;;;;;5125179;27;19908;-62
2022/01/21 07:24:21;;;;;;;;;;;17.70;42.10;;;;;;5123595;27;19913;-62
2022/01/21 07:26:47;;;;;;;;;;;17.70;42.80;;;;;;5091858;28;20340;-62
2022/01/21 07:29:12;;;;;;;;;;;17.70;42.20;;;;;;5090563;28;20275;-62
2022/01/21 07:31:37;;;;;;;;;;;17.70;42.20;;;;;;5079057;28;19916;-62
2022/01/21 07:34:06;;;;;;;;;;;17.70;42.10;;;;;;5087926;28;19923;-62
2022/01/21 07:36:34;;;;;;;;;;;17.70;42.20;;;;;;5082077;28;19935;-62
2022/01/21 07:39:00;;;;;;;;;;;17.70;42.20;;;;;;5078179;28;20445;-62
2022/01/21 07:41:26;;;;;;;;;;;17.70;42.20;;;;;;5089764;28;19950;-62
2022/01/21 07:43:52;;;;;;;;;;;17.70;42.20;;;;;;5081025;28;19917;-62
2022/01/21 07:46:18;;;;;;;;;;;17.70;42.00;;;;;;5097199;28;19913;-62
2022/01/21 07:48:43;;;;;;;;;;;17.70;42.20;;;;;;5084497;28;19920;-63
2022/01/21 07:51:09;;;;;;;;;;;17.70;42.20;;;;;;5086910;28;20391;-63
2022/01/21 07:53:34;;;;;;;;;;;17.70;42.20;;;;;;5091464;28;20291;-63
2022/01/21 07:56:00;;;;;;;;;;;17.70;42.20;;;;;;5092596;28;20014;-62
2022/01/21 07:58:26;;;;;;;;;;;17.70;42.20;;;;;;5084588;28;19909;-62
2022/01/21 08:00:51;;;;;;;;;;;17.70;42.30;;;;;;5079092;28;20023;-62
2022/01/21 08:03:17;;;;;;;;;;;17.70;42.20;;;;;;5090595;28;19912;-63
2022/01/21 08:05:44;;;;;;;;;;;17.70;42.30;;;;;;5090546;28;20299;-63
2022/01/21 08:08:09;;;;;;;;;;;17.70;42.20;;;;;;5089916;28;19998;-62
2022/01/21 08:10:35;;;;;;;;;;;17.70;42.40;;;;;;5094394;28;20019;-62
2022/01/21 08:13:00;;;;;;;;;;;17.70;42.40;;;;;;5077224;28;20038;-62
2022/01/21 08:15:26;;;;;;;;;;;17.70;42.30;;;;;;5094339;28;19912;-62
2022/01/21 08:17:52;;;;;;;;;;;17.70;42.50;;;;;;5092984;28;19916;-63
2022/01/21 08:20:17;;;;;;;;;;;17.70;42.30;;;;;;5111562;28;19919;-63
2022/01/21 08:22:43;;;;;;;;;;;17.70;42.30;;;;;;5104503;28;20445;-63
2022/01/21 08:25:08;;;;;;;;;;;17.70;42.40;;;;;;5127514;27;20420;-62
2022/01/21 08:27:34;;;;;;;;;;;17.70;42.40;;;;;;5093957;28;19927;-62
2022/01/21 08:30:00;;;;;;;;;;;17.70;42.30;;;;;;5094215;28;20398;-62
2022/01/21 08:32:25;;;;;;;;;;;17.70;42.20;;;;;;5092013;28;19917;-62
2022/01/21 08:34:51;;;;;;;;;;;17.80;42.30;;;;;;5091413;28;19919;-62
2022/01/21 08:37:16;;;;;;;;;;;17.80;42.20;;;;;;5092495;28;20053;-62
2022/01/21 08:39:43;;;;;;;;;;;17.80;42.30;;;;;;5091408;28;20067;-62
2022/01/21 08:42:08;;;;;;;;;;;17.80;42.20;;;;;;5089355;28;19920;-63
2022/01/21 08:44:34;;;;;;;;;;;17.80;42.10;;;;;;5092833;28;20026;-63
2022/01/21 08:46:59;;;;;;;;;;;17.80;42.00;;;;;;5096532;28;19912;-63
2022/01/21 08:49:25;;;;;;;;;;;17.80;42.20;;;;;;5094865;28;19974;-63
2022/01/21 08:51:53;;;;;;;;;;;17.80;42.10;;;;;;5093375;28;20003;-64
2022/01/21 08:54:19;;;;;;;;;;;17.80;42.10;;;;;;5087425;28;20261;-63
2022/01/21 08:56:44;;;;;;;;;;;17.80;42.00;;;;;;5086368;28;20330;-63
2022/01/21 08:59:10;;;;;;;;;;;17.80;42.20;;;;;;5076467;28;19912;-63
2022/01/21 09:01:35;;;;;;;;;;;17.80;42.10;;;;;;5092409;28;19920;-63
2022/01/21 09:04:01;;;;;;;;;;;17.80;42.10;;;;;;5092332;28;19919;-63
2022/01/21 09:06:29;;;;;;;;;;;17.80;42.10;;;;;;5093792;28;19958;-63
2022/01/21 09:08:57;;;;;;;;;;;17.80;42.00;;;;;;5089291;28;19920;-63
2022/01/21 09:11:23;;;;;;;;;;;17.80;41.90;;;;;;5093332;28;19927;-63
2022/01/21 09:13:48;;;;;;;;;;;17.90;42.10;;;;;;5106284;28;20288;-63
2022/01/21 09:16:15;;;;;;;;;;;17.90;42.00;;;;;;5090174;28;20049;-63
2022/01/21 09:18:50;;;;;;;;;;;17.90;42.00;;;;;;5092158;28;19935;-63
2022/01/21 09:21:19;;;;;;;;;;;17.90;42.00;;;;;;5093650;28;19912;-65
2022/01/21 09:23:47;;;;;;;;;;;17.90;42.00;;;;;;5090536;28;19923;-65
2022/01/21 09:26:13;;;;;;;;;;;17.90;42.20;;;;;;5091412;28;20011;-64
2022/01/21 09:28:38;;;;;;;;;;;18.00;42.70;;;;;;5087806;28;20531;-65
2022/01/21 09:31:04;;;;;;;;;;;18.00;42.20;;;;;;5092265;28;20384;-62
2022/01/21 09:33:29;;;;;;;;;;;18.00;42.20;;;;;;5088983;28;20380;-62
2022/01/21 09:35:55;;;;;;;;;;;18.00;42.10;;;;;;5080523;28;19912;-62
2022/01/21 09:38:20;;;;;;;;;;;18.00;42.10;;;;;;5094096;28;20360;-62
2022/01/21 09:40:46;;;;;;;;;;;18.00;42.10;;;;;;5093132;28;19912;-62
2022/01/21 09:43:12;;;;;;;;;;;18.00;42.00;;;;;;5090682;28;20015;-62
2022/01/21 09:45:38;;;;;;;;;;;18.10;42.00;;;;;;5091994;28;20003;-62
2022/01/21 09:48:05;;;;;;;;;;;18.10;42.00;;;;;;5091485;28;19928;-62
2022/01/21 09:50:32;;;;;;;;;;;18.10;42.00;;;;;;5092227;28;19948;-62
2022/01/21 09:52:57;;;;;;;;;;;18.10;42.00;;;;;;5091829;28;19919;-62
2022/01/21 09:55:23;;;;;;;;;;;18.10;42.00;;;;;;5108966;28;19908;-62
2022/01/21 09:57:49;;;;;;;;;;;18.10;42.00;;;;;;5099862;28;19919;-63
2022/01/21 10:00:15;;;;;;;;;;;18.10;42.00;;;;;;5112387;28;19916;-63
2022/01/21 10:02:41;;;;;;;;;;;18.10;42.20;;;;;;5106455;28;20435;-63
2022/01/21 10:05:07;;;;;;;;;;;18.10;42.30;;;;;;5090539;28;20412;-63
2022/01/21 10:07:34;;;;;;;;;;;18.10;42.20;;;;;;5097359;27;19959;-63
2022/01/21 10:10:06;;;;;;;;;;;18.10;42.20;;;;;;5088940;28;19964;-63
2022/01/21 10:12:31;;;;;;;;;;;18.10;42.10;;;;;;5112656;27;20375;-63
2022/01/21 10:14:57;;;;;;;;;;;18.10;42.20;;;;;;5089659;27;19965;-63
2022/01/21 10:17:22;;;;;;;;;;;18.10;42.00;;;;;;5087690;28;19916;-62
2022/01/21 10:19:51;;;;;;;;;;;18.20;42.20;;;;;;5069361;28;20265;-63
2022/01/21 10:22:19;;;;;;;;;;;18.20;42.00;;;;;;5080772;28;19927;-63
2022/01/21 10:24:54;;;;;;;;;;;18.20;42.00;;;;;;5087856;28;20015;-63
2022/01/21 10:27:26;;;;;;;;;;;18.20;42.00;;;;;;5092043;28;19912;-63
2022/01/21 10:29:51;;;;;;;;;;;18.20;42.10;;;;;;5082790;28;20269;-63
2022/01/21 10:32:17;;;;;;;;;;;18.20;42.10;;;;;;5089326;28;19923;-62
2022/01/21 10:34:44;;;;;;;;;;;18.20;42.10;;;;;;5098623;28;19995;-62
2022/01/21 10:37:26;;;;;;;;;;;18.20;42.00;;;;;;5085517;28;20352;-65
2022/01/21 10:39:58;;;;;;;;;;;18.20;42.00;;;;;;5070825;28;19909;-63
2022/01/21 10:42:24;;;;;;;;;;;18.20;42.10;;;;;;5076654;28;19916;-63
2022/01/21 10:44:50;;;;;;;;;;;18.20;42.00;;;;;;5106396;28;19912;-62
2022/01/21 10:47:15;;;;;;;;;;;18.20;42.00;;;;;;5125418;27;19919;-62
2022/01/21 10:49:43;;;;;;;;;;;18.20;42.10;;;;;;5074323;28;19908;-62
2022/01/21 10:52:13;;;;;;;;;;;18.20;42.10;;;;;;5096354;28;19981;-63
2022/01/21 10:54:42;;;;;;;;;;;18.20;42.10;;;;;;5104519;28;19908;-63
2022/01/21 10:57:12;;;;;;;;;;;18.20;42.10;;;;;;5091259;28;19909;-63
2022/01/21 10:59:44;;;;;;;;;;;18.20;42.00;;;;;;5091162;28;19961;-63
2022/01/21 11:02:11;;;;;;;;;;;18.20;42.00;;;;;;5092620;28;19912;-63
2022/01/21 11:04:40;;;;;;;;;;;18.20;42.00;;;;;;5092318;28;20265;-63
2022/01/21 11:07:06;;;;;;;;;;;18.20;42.00;;;;;;5092626;28;19908;-63
2022/01/21 11:09:32;;;;;;;;;;;18.20;42.10;;;;;;5073566;28;20257;-63
2022/01/21 11:12:14;;;;;;;;;;;18.20;42.00;;;;;;5074143;28;19911;-63
2022/01/21 11:14:53;;;;;;;;;;;18.20;42.00;;;;;;5091028;28;19939;-62
2022/01/21 11:17:19;;;;;;;;;;;18.20;42.00;;;;;;5091546;28;19982;-63
2022/01/21 11:20:00;;;;;;;;;;;18.20;42.00;;;;;;5092157;28;19963;-63
2022/01/21 11:22:25;;;;;;;;;;;18.20;42.10;;;;;;5091091;28;19908;-63
2022/01/21 11:24:51;;;;;;;;;;;18.20;42.00;;;;;;5088555;28;19912;-62
2022/01/21 11:27:16;;;;;;;;;;;18.20;41.90;;;;;;5091496;28;19920;-62
2022/01/21 11:29:42;;;;;;;;;;;18.30;42.00;;;;;;5090836;28;19915;-62
2022/01/21 11:32:08;;;;;;;;;;;18.30;42.00;;;;;;5090973;28;20295;-62
2022/01/21 11:34:33;;;;;;;;;;;18.30;41.90;;;;;;5089922;28;19920;-64
2022/01/21 11:36:59;;;;;;;;;;;18.30;42.10;;;;;;5124535;28;19998;-64
2022/01/21 11:39:25;;;;;;;;;;;18.30;42.10;;;;;;5092564;28;20015;-65
2022/01/21 11:41:51;;;;;;;;;;;18.20;41.90;;;;;;5088952;28;19922;-63
2022/01/21 11:44:18;;;;;;;;;;;18.30;42.00;;;;;;5097136;28;20346;-63
2022/01/21 11:46:58;;;;;;;;;;;18.30;41.90;;;;;;5098508;28;19920;-64
2022/01/21 11:49:25;;;;;;;;;;;18.30;42.10;;;;;;5101549;28;19973;-63
2022/01/21 11:51:51;;;;;;;;;;;18.30;42.10;;;;;;5084508;28;19916;-63
2022/01/21 11:54:17;;;;;;;;;;;18.30;42.10;;;;;;5106789;27;19916;-62
2022/01/21 11:56:48;;;;;;;;;;;18.30;42.20;;;;;;5074230;28;19957;-63
2022/01/21 11:59:25;;;;;;;;;;;18.30;42.40;;;;;;5092661;28;19961;-64
2022/01/21 12:01:52;;;;;;;;;;;18.30;42.30;;;;;;5096793;28;19926;-63
2022/01/21 12:04:40;;;;;;;;;;;18.30;42.30;;;;;;5094602;28;19943;-64
2022/01/21 12:07:26;;;;;;;;;;;18.30;42.20;;;;;;5088171;28;20295;-64
2022/01/21 12:09:59;;;;;;;;;;;18.30;42.20;;;;;;5127755;27;19936;-65
2022/01/21 12:12:25;;;;;;;;;;;18.30;42.40;;;;;;5093300;28;20003;-65
2022/01/21 12:15:01;;;;;;;;;;;18.30;42.40;;;;;;5094501;28;19912;-65
2022/01/21 12:17:36;;;;;;;;;;;18.30;42.40;;;;;;5100269;28;19934;-65
2022/01/21 12:20:05;;;;;;;;;;;18.30;42.40;;;;;;5096223;28;19931;-64
2022/01/21 12:22:31;;;;;;;;;;;18.30;42.50;;;;;;5114649;28;19908;-64
2022/01/21 12:25:07;;;;;;;;;;;18.20;42.40;;;;;;5099378;28;19935;-64
2022/01/21 12:27:32;;;;;;;;;;;18.20;42.30;;;;;;5093209;28;19969;-64
2022/01/21 12:30:16;;;;;;;;;;;18.30;42.50;;;;;;5092973;28;19916;-64
2022/01/21 12:33:02;;;;;;;;;;;18.30;42.50;;;;;;5093101;28;19920;-64
2022/01/21 12:35:28;;;;;;;;;;;18.30;42.40;;;;;;5076776;28;20382;-64
2022/01/21 12:40:55;;;;;;;;;;;18.30;42.60;;;;;;5096896;28;19975;-64
2022/01/21 12:43:39;;;;;;;;;;;18.30;42.50;;;;;;5093028;28;19916;-64
2022/01/21 12:46:06;;;;;;;;;;;18.30;42.50;;;;;;5096714;28;20037;-65
2022/01/21 12:48:34;;;;;;;;;;;18.30;42.70;;;;;;5091069;28;20326;-64
2022/01/21 12:56:42;;;;;;;;;;;18.20;42.60;;;;;;5091262;28;20307;-64
2022/01/21 12:59:12;;;;;;;;;;;18.20;42.70;;;;;;5090834;28;19919;-64
2022/01/21 13:01:38;;;;;;;;;;;18.20;42.70;;;;;;5100881;28;19957;-65
2022/01/21 13:04:07;;;;;;;;;;;18.20;42.90;;;;;;5091198;28;20035;-65
2022/01/21 13:06:35;;;;;;;;;;;18.30;42.90;;;;;;5094322;28;19920;-65
2022/01/21 13:09:11;;;;;;;;;;;18.30;42.80;;;;;;5076046;28;20003;-64
2022/01/21 13:11:40;;;;;;;;;;;18.30;43.00;;;;;;5094162;28;19912;-64
2022/01/21 13:14:34;;;;;;;;;;;18.30;42.90;;;;;;5057180;28;20003;-64
2022/01/21 13:17:06;;;;;;;;;;;18.20;42.90;;;;;;5078728;28;20276;-64
2022/01/21 13:19:51;;;;;;;;;;;18.30;43.00;;;;;;5093459;28;19916;-64
2022/01/21 13:22:20;;;;;;;;;;;18.30;43.00;;;;;;5091167;28;19912;-64
2022/01/21 13:24:58;;;;;;;;;;;18.30;43.00;;;;;;5093014;28;19910;-64
2022/01/21 13:27:24;;;;;;;;;;;18.30;43.00;;;;;;5098623;27;19912;-64
2022/01/21 13:29:52;;;;;;;;;;;18.30;43.00;;;;;;5103118;28;19916;-64
2022/01/21 13:32:21;;;;;;;;;;;18.30;43.00;;;;;;5126987;27;20392;-64
2022/01/21 13:34:47;;;;;;;;;;;18.30;43.00;;;;;;5091046;28;19954;-64
2022/01/21 13:37:18;;;;;;;;;;;18.30;43.00;;;;;;5093328;28;19969;-64
2022/01/21 13:39:44;;;;;;;;;;;18.30;43.00;;;;;;5099527;28;19912;-64
2022/01/21 13:42:15;;;;;;;;;;;18.30;43.00;;;;;;5093080;28;20312;-64
2022/01/21 13:44:56;;;;;;;;;;;18.30;43.00;;;;;;5092080;28;19922;-64
2022/01/21 13:47:27;;;;;;;;;;;18.30;43.00;;;;;;5068682;28;19935;-65
2022/01/21 13:49:53;;;;;;;;;;;18.30;43.00;;;;;;5088547;28;19916;-65
2022/01/21 13:52:18;;;;;;;;;;;18.30;43.00;;;;;;5092860;28;19961;-64
2022/01/21 13:54:47;;;;;;;;;;;18.30;43.00;;;;;;5090533;28;19958;-64
2022/01/21 13:57:13;;;;;;;;;;;18.30;43.20;;;;;;5092028;28;20024;-64
2022/01/21 13:59:42;;;;;;;;;;;18.30;43.10;;;;;;5091587;28;20019;-64
2022/01/21 14:02:12;;;;;;;;;;;18.30;43.20;;;;;;5091694;28;19916;-64
2022/01/21 14:04:37;;;;;;;;;;;18.30;43.10;;;;;;5089342;28;19912;-65
2022/01/21 14:07:03;;;;;;;;;;;18.30;43.00;;;;;;5108175;28;20070;-64
2022/01/21 14:09:29;;;;;;;;;;;18.30;43.10;;;;;;5091986;28;20029;-64
2022/01/21 14:11:54;;;;;;;;;;;18.30;43.10;;;;;;5125049;27;19920;-64
2022/01/21 14:14:22;;;;;;;;;;;18.30;43.00;;;;;;5092819;28;19912;-64
2022/01/21 14:16:50;;;;;;;;;;;18.30;43.10;;;;;;5092568;28;19908;-64
2022/01/21 14:19:18;;;;;;;;;;;18.30;43.00;;;;;;5089846;28;19999;-64
2022/01/21 14:21:45;;;;;;;;;;;18.30;43.00;;;;;;5088908;28;19920;-64
2022/01/21 14:24:16;;;;;;;;;;;18.30;43.00;;;;;;5088024;28;19920;-64
2022/01/21 14:26:42;;;;;;;;;;;18.30;43.20;;;;;;5089812;28;19912;-64
2022/01/21 14:29:08;;;;;;;;;;;18.30;43.20;;;;;;5091025;28;19912;-64
2022/01/21 14:31:33;;;;;;;;;;;18.30;43.00;;;;;;5094065;28;20419;-64
2022/01/21 14:33:59;;;;;;;;;;;18.30;43.10;;;;;;5122915;27;19916;-64
2022/01/21 14:36:25;;;;;;;;;;;18.30;43.20;;;;;;5090120;28;20376;-64
2022/01/21 14:39:06;;;;;;;;;;;18.30;43.10;;;;;;5081275;28;20007;-64
2022/01/21 14:41:36;;;;;;;;;;;18.30;43.10;;;;;;5090669;28;19912;-64
2022/01/21 14:44:02;;;;;;;;;;;18.30;43.20;;;;;;5092041;28;20028;-65
2022/01/21 14:46:28;;;;;;;;;;;18.30;43.30;;;;;;5091893;28;19925;-65
2022/01/21 14:48:55;;;;;;;;;;;18.30;43.40;;;;;;5090603;28;19912;-65
2022/01/21 14:51:24;;;;;;;;;;;18.30;43.20;;;;;;5092292;28;19908;-65
2022/01/21 14:53:54;;;;;;;;;;;18.30;43.20;;;;;;5091270;28;20290;-64
2022/01/21 14:56:25;;;;;;;;;;;18.30;43.30;;;;;;5106902;28;19974;-64
2022/01/21 14:59:05;;;;;;;;;;;18.30;43.20;;;;;;5089029;28;19912;-65
2022/01/21 15:01:31;;;;;;;;;;;18.30;43.20;;;;;;5092717;28;20279;-65
2022/01/21 15:03:56;;;;;;;;;;;18.40;43.30;;;;;;5089580;28;19912;-65
2022/01/21 15:06:23;;;;;;;;;;;18.40;43.10;;;;;;5091592;28;20283;-65
2022/01/21 15:08:56;;;;;;;;;;;18.40;43.30;;;;;;5090926;28;19916;-65
2022/01/21 15:14:33;;;;;;;;;;;18.30;43.10;;;;;;5090303;28;19923;-65